createdAt,value
2023-01-07T00:04:48.243Z,13.10
2023-01-07T00:09:50.511Z,13.10
2023-01-07T00:14:52.721Z,13.10
2023-01-07T00:19:56.852Z,13.10
2023-01-07T00:24:59.289Z,13.10
2023-01-07T00:30:01.465Z,13.10
2023-01-07T00:35:04.217Z,13.10
2023-01-07T00:40:06.637Z,13.10
2023-01-07T00:45:10.246Z,13.00
2023-01-07T00:50:12.340Z,13.20
2023-01-07T00:55:17.328Z,13.00
2023-01-07T01:00:21.890Z,13.00
2023-01-07T01:05:24.168Z,13.00
2023-01-07T01:10:27.962Z,13.00
2023-01-07T01:15:30.057Z,13.00
2023-01-07T01:20:34.216Z,13.00
2023-01-07T01:25:36.795Z,13.00
2023-01-07T01:30:38.893Z,12.90
2023-01-07T01:35:42.910Z,13.00
2023-01-07T01:40:45.139Z,13.00
2023-01-07T01:45:50.439Z,13.00
2023-01-07T01:50:53.335Z,13.00
2023-01-07T01:56:07.181Z,13.00
2023-01-07T02:01:09.856Z,13.00
2023-01-07T02:06:22.933Z,13.00
2023-01-07T02:11:46.835Z,13.00
2023-01-07T02:16:52.365Z,13.20
2023-01-07T02:22:29.795Z,13.00
2023-01-07T02:28:07.278Z,13.00
2023-01-07T02:33:42.513Z,13.00
2023-01-07T02:39:23.219Z,13.00
2023-01-07T02:44:37.899Z,12.90
2023-01-07T02:49:40.327Z,12.80
2023-01-07T02:54:44.123Z,12.90
2023-01-07T02:59:52.891Z,12.90
2023-01-07T03:05:19.204Z,12.90
2023-01-07T03:10:39.925Z,12.90
2023-01-07T03:15:48.974Z,12.80
2023-01-07T03:20:57.211Z,12.80
2023-01-07T03:26:04.946Z,12.90
2023-01-07T03:31:12.022Z,12.90
2023-01-07T03:36:19.558Z,12.90
2023-01-07T03:41:40.520Z,12.90
2023-01-07T03:46:43.845Z,12.90
2023-01-07T03:51:46.812Z,12.90
2023-01-07T03:56:49.584Z,12.80
2023-01-07T04:01:51.892Z,13.00
2023-01-07T04:06:54.472Z,12.80
2023-01-07T04:11:57.005Z,12.90
2023-01-07T04:17:00.350Z,12.90
2023-01-07T04:22:03.075Z,12.80
2023-01-07T04:27:06.349Z,12.90
2023-01-07T04:32:08.484Z,12.80
2023-01-07T04:37:10.874Z,12.80
2023-01-07T04:42:13.129Z,12.80
2023-01-07T04:47:15.555Z,12.80
2023-01-07T04:52:18.413Z,12.90
2023-01-07T04:57:21.021Z,12.80
2023-01-07T05:02:23.390Z,12.80
2023-01-07T05:07:26.639Z,12.80
2023-01-07T05:12:28.844Z,12.80
2023-01-07T05:17:31.323Z,12.80
2023-01-07T05:22:34.649Z,12.80
2023-01-07T05:27:38.015Z,12.90
2023-01-07T05:32:40.803Z,12.90
2023-01-07T05:37:43.488Z,12.80
2023-01-07T05:42:45.888Z,12.80
2023-01-07T05:47:49.577Z,12.80
2023-01-07T05:52:52.315Z,12.80
2023-01-07T05:57:54.299Z,13.00
2023-01-07T06:02:56.374Z,12.80
2023-01-07T06:07:58.466Z,12.80
2023-01-07T06:13:02.110Z,12.70
2023-01-07T06:18:04.318Z,12.80
2023-01-07T06:23:06.487Z,12.80
2023-01-07T06:28:08.692Z,12.80
2023-01-07T06:33:10.774Z,12.80
2023-01-07T06:38:13.273Z,12.70
2023-01-07T06:43:15.431Z,12.70
2023-01-07T06:48:17.859Z,12.70
2023-01-07T06:53:19.988Z,12.70
2023-01-07T06:58:22.087Z,12.90
2023-01-07T07:03:24.293Z,12.90
2023-01-07T07:08:26.542Z,12.60
2023-01-07T07:13:28.649Z,12.70
2023-01-07T07:18:30.786Z,12.70
2023-01-07T07:23:32.918Z,12.70
2023-01-07T07:28:34.992Z,12.70
2023-01-07T07:33:37.544Z,12.70
2023-01-07T07:38:39.664Z,12.70
2023-01-07T07:43:41.730Z,12.70
2023-01-07T07:48:44.100Z,12.70
2023-01-07T07:53:46.182Z,12.70
2023-01-07T07:58:48.233Z,12.70
2023-01-07T08:03:50.611Z,12.70
2023-01-07T08:08:52.723Z,12.70
2023-01-07T08:13:54.813Z,12.70
2023-01-07T08:29:02.236Z,12.70
2023-01-07T08:34:04.615Z,12.80
2023-01-07T08:39:07.096Z,12.80
2023-01-07T08:44:09.207Z,12.80
2023-01-07T08:49:11.772Z,12.90
2023-01-07T08:59:17.056Z,12.90
2023-01-07T09:04:19.151Z,12.90
2023-01-07T09:09:22.506Z,13.00
2023-01-07T09:14:24.738Z,13.00
2023-01-07T09:24:29.375Z,13.20
2023-01-07T09:29:31.496Z,13.20
2023-01-07T09:34:33.581Z,13.40
2023-01-07T09:45:00.802Z,13.50
2023-01-07T09:50:14.255Z,13.60
2023-01-07T09:55:25.879Z,13.70
2023-01-07T10:00:29.818Z,13.80
2023-01-07T10:05:43.470Z,13.90
2023-01-07T10:11:28.253Z,13.90
2023-01-07T10:17:18.015Z,14.00
2023-01-07T10:27:37.224Z,14.00
2023-01-07T10:32:39.539Z,14.00
2023-01-07T10:37:43.387Z,14.20
2023-01-07T10:43:04.044Z,14.00
2023-01-07T10:48:25.926Z,14.10
2023-01-07T10:53:39.996Z,14.10
2023-01-07T10:58:45.281Z,14.00
2023-01-07T11:03:50.773Z,14.10
2023-01-07T11:14:03.083Z,14.20
2023-01-07T11:19:10.714Z,14.30
2023-01-07T11:24:34.391Z,14.30
2023-01-07T11:29:44.208Z,14.30
2023-01-07T11:34:59.802Z,14.30
2023-01-07T11:40:13.877Z,14.20
2023-01-07T11:45:15.998Z,14.20
2023-01-07T11:50:34.665Z,14.30
2023-01-07T11:55:37.584Z,14.40
2023-01-07T12:05:45.180Z,14.20
2023-01-07T12:10:55.241Z,14.40
2023-01-07T12:16:04.653Z,14.40
2023-01-07T12:21:31.886Z,14.50
2023-01-07T12:26:51.613Z,14.50
2023-01-07T12:32:12.615Z,14.50
2023-01-07T12:37:20.636Z,14.60
2023-01-07T12:42:28.023Z,14.70
2023-01-07T12:47:37.191Z,14.70
2023-01-07T12:52:57.827Z,14.80
2023-01-07T12:58:13.014Z,14.90
2023-01-07T13:03:29.301Z,15.00
2023-01-07T13:08:40.022Z,15.20
2023-01-07T13:13:53.943Z,15.10
2023-01-07T13:18:56.143Z,15.20
2023-01-07T13:24:54.729Z,15.30
2023-01-07T13:30:09.590Z,15.30
2023-01-07T13:35:28.868Z,15.30
2023-01-07T13:40:40.296Z,15.20
2023-01-07T13:45:50.596Z,15.20
2023-01-07T13:51:01.072Z,15.20
2023-01-07T13:56:18.498Z,15.20
2023-01-07T14:01:28.941Z,15.30
2023-01-07T14:06:46.854Z,15.40
2023-01-07T14:12:07.527Z,15.50
2023-01-07T14:17:42.738Z,16.00
2023-01-07T14:23:23.206Z,15.80
2023-01-07T14:28:44.263Z,15.80
2023-01-07T14:33:58.499Z,15.70
2023-01-07T14:39:00.693Z,15.60
2023-01-07T14:44:24.657Z,15.40
2023-01-07T14:49:32.906Z,15.30
2023-01-07T14:54:59.115Z,15.30
2023-01-07T15:00:19.313Z,15.50
2023-01-07T15:05:21.356Z,15.10
2023-01-07T15:10:48.648Z,15.10
2023-01-07T15:16:01.024Z,14.90
2023-01-07T15:21:39.346Z,14.90
2023-01-07T15:26:48.892Z,14.70
2023-01-07T15:32:28.592Z,14.60
2023-01-07T15:37:30.776Z,14.40
2023-01-07T15:42:32.956Z,14.30
2023-01-07T15:47:41.603Z,14.20
2023-01-07T15:52:49.917Z,14.00
2023-01-07T15:57:56.837Z,13.80
2023-01-07T16:03:00.798Z,13.80
2023-01-07T16:08:03.056Z,13.60
2023-01-07T16:13:18.134Z,13.60
2023-01-07T16:23:29.228Z,13.30
2023-01-07T16:28:37.188Z,13.20
2023-01-07T16:33:41.851Z,13.20
2023-01-07T16:38:45.933Z,13.30
2023-01-07T16:43:48.563Z,13.00
2023-01-07T16:49:09.313Z,12.90
2023-01-07T16:54:19.529Z,13.10
2023-01-07T16:59:24.946Z,12.80
2023-01-07T17:04:30.067Z,12.70
2023-01-07T17:09:35.986Z,12.70
2023-01-07T17:14:41.145Z,12.60
2023-01-07T17:20:11.408Z,12.60
2023-01-07T17:25:15.322Z,12.60
2023-01-07T17:30:20.481Z,12.60
2023-01-07T17:35:24.673Z,12.60
2023-01-07T17:45:29.590Z,12.50
2023-01-07T17:50:36.802Z,12.40
2023-01-07T17:55:38.991Z,12.50
2023-01-07T18:00:41.234Z,12.40
2023-01-07T18:05:43.367Z,12.30
2023-01-07T18:11:04.641Z,12.30
2023-01-07T18:16:10.684Z,12.10
2023-01-07T18:21:12.905Z,12.00
2023-01-07T18:26:16.128Z,11.90
2023-01-07T18:31:18.306Z,11.50
2023-01-07T18:36:20.446Z,11.30
2023-01-07T18:41:22.674Z,11.20
2023-01-07T18:46:24.804Z,11.00
2023-01-07T18:51:27.441Z,10.70
2023-01-07T18:56:29.450Z,10.60
2023-01-07T19:01:31.674Z,10.50
2023-01-07T19:11:38.308Z,10.20
2023-01-07T19:16:40.530Z,10.00
2023-01-07T19:21:43.442Z,10.00
2023-01-07T19:26:46.899Z,10.00
2023-01-07T19:31:49.018Z,9.90
2023-01-07T19:36:51.542Z,10.10
2023-01-07T19:41:53.706Z,10.30
2023-01-07T19:46:55.804Z,10.50
2023-01-07T19:51:57.925Z,10.60
2023-01-07T19:57:00.101Z,10.70
2023-01-07T20:02:03.515Z,10.80
2023-01-07T20:07:05.799Z,10.90
2023-01-07T20:12:08.023Z,10.90
2023-01-07T20:17:10.174Z,10.90
2023-01-07T20:22:12.293Z,10.90
2023-01-07T20:27:14.467Z,10.90
2023-01-07T20:32:18.968Z,10.90
2023-01-07T20:37:23.995Z,10.90
2023-01-07T20:42:27.097Z,10.80
2023-01-07T20:47:29.275Z,10.80
2023-01-07T20:52:31.417Z,10.70
2023-01-07T20:57:33.561Z,10.70
2023-01-07T21:02:35.860Z,10.70
2023-01-07T21:07:38.196Z,10.80
2023-01-07T21:12:40.341Z,10.80
2023-01-07T21:27:49.927Z,11.00
2023-01-07T21:32:52.104Z,11.20
2023-01-07T21:37:55.038Z,11.20
2023-01-07T21:42:57.177Z,11.20
2023-01-07T21:47:59.339Z,11.30
2023-01-07T21:53:01.504Z,11.50
2023-01-07T21:58:03.625Z,11.40
2023-01-07T22:03:05.777Z,11.40
2023-01-07T22:08:09.076Z,11.50
2023-01-07T22:13:11.340Z,11.60
2023-01-07T22:23:19.274Z,12.00
2023-01-07T22:28:23.551Z,11.80
2023-01-07T22:33:25.709Z,11.90
2023-01-07T22:38:28.665Z,12.10
2023-01-07T22:43:30.900Z,12.10
2023-01-07T22:48:36.163Z,12.20
2023-01-07T22:53:38.635Z,12.20
2023-01-07T22:58:41.019Z,12.20
2023-01-07T23:03:44.320Z,12.30
2023-01-07T23:08:46.643Z,12.10
2023-01-07T23:13:48.714Z,12.30
2023-01-07T23:18:50.793Z,12.40
2023-01-07T23:23:52.917Z,12.50
2023-01-07T23:28:55.187Z,12.60
2023-01-07T23:33:57.342Z,12.60
2023-01-07T23:38:59.440Z,12.70
2023-01-07T23:44:01.583Z,12.70
2023-01-07T23:49:03.720Z,12.80
2023-01-07T23:54:06.226Z,12.80
2023-01-07T23:59:10.008Z,12.80
